Kasagimaru — JJ3905 — position and weather

sailwx.info

Track history (hours):
 
Tides and Currents Weather Stations Pressure Air Temp Water Temp Dewpoint Dewpoint Depression Visibility Wind Speed Wind Dir Waves Ship Positions

Kasagimaru

Last reported at 2016-Sep-29 00:33 UTC. Time now 2016-Oct-01 22:21 UTC.
Position N 34°28' E 135°12'.

Length 42 m; draft 3.5 m.

Type: Tug. MMSI: 431300268.

Date/timePositionNaut miles runAvg speedWind from/ knotsBaromVisibWave heightAir tempDewpointWater temp
2016-Sep-29 00:33N 34°28' E 135°12'15 5.1
2016-Sep-28 21:34N 34°13' E 135°09'0 0.0
2016-Sep-28 19:34N 34°13' E 135°09'0 0.0
2016-Sep-28 16:34N 34°13' E 135°09'0 0.0
2016-Sep-28 15:34N 34°13' E 135°09'0 0.0
2016-Sep-28 12:33N 34°13' E 135°09'0 0.0
2016-Sep-28 08:34N 34°13' E 135°09'0 0.0
2016-Sep-28 03:33N 34°13' E 135°09'5 4.6
2016-Sep-28 02:31N 34°11' E 135°04'8 1.1
2016-Sep-27 19:29N 34°19' E 135°04'23 3.7
2016-Sep-27 13:06N 34°33' E 135°27'3 0.2
2016-Sep-27 00:23N 34°31' E 135°24'3 0.7
2016-Sep-26 20:30N 34°33' E 135°27'0 0.0
2016-Sep-26 15:33N 34°33' E 135°27'0 0.0
2016-Sep-26 13:32N 34°33' E 135°27'0 0.0
2016-Sep-26 11:08N 34°33' E 135°27'3 1.0
2016-Sep-26 08:32N 34°33' E 135°23'16 0.5
2016-Sep-25 00:33N 34°36' E 135°05'20 9.0
2016-Sep-24 22:20N 34°16' E 134°59'6 7.1
2016-Sep-24 21:31N 34°11' E 135°02'6 3.2
2016-Sep-24 19:33N 34°13' E 135°09'0 0.0
2016-Sep-24 18:33N 34°13' E 135°09'0 0.0
2016-Sep-24 17:33N 34°13' E 135°09'0 0.0
2016-Sep-24 16:34N 34°13' E 135°09'0 0.0
2016-Sep-24 14:34N 34°13' E 135°09'0 0.0
2016-Sep-24 12:33N 34°13' E 135°09'0 0.0
2016-Sep-24 10:33N 34°13' E 135°09'0 0.0
2016-Sep-24 09:33N 34°13' E 135°09'24 3.9
2016-Sep-24 03:26N 34°33' E 135°25'1 0.9
2016-Sep-24 02:22N 34°33' E 135°27'0 0.0
2016-Sep-24 00:33N 34°33' E 135°27'2 0.2
2016-Sep-23 09:33N 34°34' E 135°24'6 1.2
2016-Sep-23 04:33N 34°39' E 135°29'6 6.1
2016-Sep-23 03:32N 34°33' E 135°25'0 0.4
2016-Sep-23 02:32N 34°33' E 135°25'4 4.2
2016-Sep-23 01:33N 34°33' E 135°20'2 1.8
2016-Sep-23 00:33N 34°32' E 135°22'0 0.4
2016-Sep-22 23:33N 34°32' E 135°22'20 1.0
2016-Sep-22 04:16N 34°23' E 135°01'1013.7
2016-Sep-22 03:33N 34°29' E 135°10'14 4.7
2016-Sep-22 00:33N 34°33' E 135°27'0 0.0
2016-Sep-21 23:33N 34°33' E 135°27'0 0.0
2016-Sep-21 22:33N 34°33' E 135°27'0 0.0
2016-Sep-21 19:33N 34°33' E 135°27'0 0.0
2016-Sep-21 03:07N 34°33' E 135°27'0 0.0
2016-Sep-20 17:33N 34°33' E 135°27'0 0.0
2016-Sep-20 14:33N 34°33' E 135°27'0 0.0
2016-Sep-20 13:33N 34°33' E 135°27'0 0.0
2016-Sep-20 10:33N 34°33' E 135°27'0 0.0
2016-Sep-20 08:33N 34°33' E 135°27'0 0.0
2016-Sep-20 07:23N 34°33' E 135°27'0 0.0
2016-Sep-20 06:13N 34°33' E 135°27'0 0.0
2016-Sep-20 02:33N 34°33' E 135°27'0 0.0
2016-Sep-19 19:33N 34°33' E 135°27'0 0.0
2016-Sep-19 18:33N 34°33' E 135°27'0 0.0
2016-Sep-19 16:29N 34°33' E 135°27'0 0.0
2016-Sep-19 14:33N 34°33' E 135°27'0 0.0
2016-Sep-19 09:33N 34°33' E 135°27'0 0.0
2016-Sep-19 07:33N 34°33' E 135°27'  
Track history (hours):
 
Tides and Currents Weather Stations Pressure Air Temp Water Temp Dewpoint Dewpoint Depression Visibility Wind Speed Wind Dir Waves Ship Positions

Kasagimaru

Last reported at 2016-Sep-29 00:33 UTC. Time now 2016-Oct-01 22:21 UTC.
Position N 34°28' E 135°12'.

Length 42 m; draft 3.5 m.

Type: Tug. MMSI: 431300268.

Date/timePositionNaut miles runAvg speedWind from/ knotsBaromVisibWave heightAir tempDewpointWater temp
2016-Sep-29 00:33N 34°28' E 135°12'15 5.1
2016-Sep-28 21:34N 34°13' E 135°09'0 0.0
2016-Sep-28 19:34N 34°13' E 135°09'0 0.0
2016-Sep-28 16:34N 34°13' E 135°09'0 0.0
2016-Sep-28 15:34N 34°13' E 135°09'0 0.0
2016-Sep-28 12:33N 34°13' E 135°09'0 0.0
2016-Sep-28 08:34N 34°13' E 135°09'0 0.0
2016-Sep-28 03:33N 34°13' E 135°09'5 4.6
2016-Sep-28 02:31N 34°11' E 135°04'8 1.1
2016-Sep-27 19:29N 34°19' E 135°04'23 3.7
2016-Sep-27 13:06N 34°33' E 135°27'3 0.2
2016-Sep-27 00:23N 34°31' E 135°24'3 0.7
2016-Sep-26 20:30N 34°33' E 135°27'0 0.0
2016-Sep-26 15:33N 34°33' E 135°27'0 0.0
2016-Sep-26 13:32N 34°33' E 135°27'0 0.0
2016-Sep-26 11:08N 34°33' E 135°27'3 1.0
2016-Sep-26 08:32N 34°33' E 135°23'16 0.5
2016-Sep-25 00:33N 34°36' E 135°05'20 9.0
2016-Sep-24 22:20N 34°16' E 134°59'6 7.1
2016-Sep-24 21:31N 34°11' E 135°02'6 3.2
2016-Sep-24 19:33N 34°13' E 135°09'0 0.0
2016-Sep-24 18:33N 34°13' E 135°09'0 0.0
2016-Sep-24 17:33N 34°13' E 135°09'0 0.0
2016-Sep-24 16:34N 34°13' E 135°09'0 0.0
2016-Sep-24 14:34N 34°13' E 135°09'0 0.0
2016-Sep-24 12:33N 34°13' E 135°09'0 0.0
2016-Sep-24 10:33N 34°13' E 135°09'0 0.0
2016-Sep-24 09:33N 34°13' E 135°09'24 3.9
2016-Sep-24 03:26N 34°33' E 135°25'1 0.9
2016-Sep-24 02:22N 34°33' E 135°27'0 0.0
2016-Sep-24 00:33N 34°33' E 135°27'2 0.2
2016-Sep-23 09:33N 34°34' E 135°24'6 1.2
2016-Sep-23 04:33N 34°39' E 135°29'6 6.1
2016-Sep-23 03:32N 34°33' E 135°25'0 0.4
2016-Sep-23 02:32N 34°33' E 135°25'4 4.2
2016-Sep-23 01:33N 34°33' E 135°20'2 1.8
2016-Sep-23 00:33N 34°32' E 135°22'0 0.4
2016-Sep-22 23:33N 34°32' E 135°22'20 1.0
2016-Sep-22 04:16N 34°23' E 135°01'1013.7
2016-Sep-22 03:33N 34°29' E 135°10'14 4.7
2016-Sep-22 00:33N 34°33' E 135°27'0 0.0
2016-Sep-21 23:33N 34°33' E 135°27'0 0.0
2016-Sep-21 22:33N 34°33' E 135°27'0 0.0
2016-Sep-21 19:33N 34°33' E 135°27'0 0.0
2016-Sep-21 03:07N 34°33' E 135°27'0 0.0
2016-Sep-20 17:33N 34°33' E 135°27'0 0.0
2016-Sep-20 14:33N 34°33' E 135°27'0 0.0
2016-Sep-20 13:33N 34°33' E 135°27'0 0.0
2016-Sep-20 10:33N 34°33' E 135°27'0 0.0
2016-Sep-20 08:33N 34°33' E 135°27'0 0.0
2016-Sep-20 07:23N 34°33' E 135°27'0 0.0
2016-Sep-20 06:13N 34°33' E 135°27'0 0.0
2016-Sep-20 02:33N 34°33' E 135°27'0 0.0
2016-Sep-19 19:33N 34°33' E 135°27'0 0.0
2016-Sep-19 18:33N 34°33' E 135°27'0 0.0
2016-Sep-19 16:29N 34°33' E 135°27'0 0.0
2016-Sep-19 14:33N 34°33' E 135°27'0 0.0
2016-Sep-19 09:33N 34°33' E 135°27'0 0.0
2016-Sep-19 07:33N 34°33' E 135°27'  

Dump ship's entire track history